createdAt,value
2018-12-30T00:00:16.161Z,84.64
2018-12-30T00:01:16.152Z,85.67
2018-12-30T00:02:16.141Z,85.05
2018-12-30T00:03:16.128Z,86.49
2018-12-30T00:04:16.118Z,86.90
2018-12-30T00:05:16.107Z,86.08
2018-12-30T00:06:16.094Z,84.79
2018-12-30T00:07:16.084Z,85.09
2018-12-30T00:08:16.074Z,83.44
2018-12-30T00:09:16.065Z,84.95
2018-12-30T00:10:16.053Z,83.51
2018-12-30T00:11:16.041Z,84.33
2018-12-30T00:12:16.033Z,84.58
2018-12-30T00:13:16.020Z,84.16
2018-12-30T00:14:16.009Z,84.68
2018-12-30T00:15:15.999Z,83.03
2018-12-30T00:16:15.987Z,83.44
2018-12-30T00:17:15.977Z,83.55
2018-12-30T00:18:15.968Z,83.96
2018-12-30T00:19:15.956Z,83.14
2018-12-30T00:20:15.943Z,83.34
2018-12-30T00:21:15.934Z,82.83
2018-12-30T00:22:15.921Z,83.00
2018-12-30T00:23:15.911Z,83.72
2018-12-30T00:24:15.898Z,84.37
2018-12-30T00:25:15.890Z,84.16
2018-12-30T00:26:15.881Z,83.55
2018-12-30T00:27:15.875Z,83.24
2018-12-30T00:28:15.856Z,84.16
2018-12-30T00:29:15.860Z,84.58
2018-12-30T00:30:15.839Z,83.44
2018-12-30T00:31:15.823Z,83.14
2018-12-30T00:32:15.812Z,84.16
2018-12-30T00:33:15.802Z,84.06
2018-12-30T00:34:15.799Z,84.88
2018-12-30T00:35:15.781Z,86.43
2018-12-30T00:36:15.773Z,84.58
2018-12-30T00:37:15.764Z,84.93
2018-12-30T00:38:15.747Z,84.10
2018-12-30T00:39:15.738Z,83.86
2018-12-30T00:40:15.724Z,82.72
2018-12-30T00:41:15.715Z,82.11
2018-12-30T00:42:15.706Z,82.42
2018-12-30T00:43:15.694Z,82.21
2018-12-30T00:44:15.682Z,82.52
2018-12-30T00:45:15.676Z,83.24
2018-12-30T00:46:15.661Z,82.21
2018-12-30T00:47:15.649Z,82.42
2018-12-30T00:48:15.638Z,82.11
2018-12-30T00:49:15.628Z,82.11
2018-12-30T00:50:15.616Z,82.52
2018-12-30T00:51:17.267Z,82.31
2018-12-30T00:52:15.595Z,82.93
2018-12-30T00:53:15.583Z,83.34
2018-12-30T00:54:15.571Z,83.65
2018-12-30T00:55:15.562Z,83.14
2018-12-30T00:56:15.552Z,83.14
2018-12-30T00:57:15.538Z,83.96
2018-12-30T00:58:15.530Z,82.42
2018-12-30T00:59:15.516Z,82.52
2018-12-30T01:00:15.507Z,83.34
2018-12-30T01:01:15.496Z,83.24
2018-12-30T01:02:15.485Z,83.75
2018-12-30T01:03:15.474Z,83.14
2018-12-30T01:04:15.462Z,84.06
2018-12-30T01:05:15.454Z,83.65
2018-12-30T01:06:15.443Z,83.96
2018-12-30T01:07:15.433Z,84.37
2018-12-30T01:08:15.423Z,83.59
2018-12-30T01:09:15.409Z,83.28
2018-12-30T01:10:15.399Z,83.17
2018-12-30T01:11:15.388Z,82.93
2018-12-30T01:12:15.377Z,83.14
2018-12-30T01:13:15.376Z,83.55
2018-12-30T01:14:15.354Z,83.65
2018-12-30T01:15:15.346Z,83.55
2018-12-30T01:16:15.337Z,82.93
2018-12-30T01:17:15.320Z,83.65
2018-12-30T01:18:15.310Z,82.83
2018-12-30T01:19:15.304Z,82.62
2018-12-30T01:20:15.290Z,82.83
2018-12-30T01:21:15.277Z,82.93
2018-12-30T01:22:15.273Z,82.72
2018-12-30T01:23:15.256Z,84.37
2018-12-30T01:24:15.333Z,83.59
2018-12-30T01:25:15.233Z,83.44
2018-12-30T01:26:15.221Z,83.38
2018-12-30T01:27:15.213Z,83.14
2018-12-30T01:28:15.201Z,83.24
2018-12-30T01:29:15.188Z,84.82
2018-12-30T01:30:15.177Z,83.59
2018-12-30T01:31:15.171Z,83.69
2018-12-30T01:32:15.156Z,84.37
2018-12-30T01:33:15.145Z,84.82
2018-12-30T01:34:15.134Z,85.13
2018-12-30T01:35:15.126Z,85.65
2018-12-30T01:36:15.112Z,85.96
2018-12-30T01:37:15.101Z,86.26
2018-12-30T01:38:15.099Z,86.78
2018-12-30T01:39:15.080Z,87.19
2018-12-30T01:40:15.067Z,87.60
2018-12-30T01:41:15.056Z,87.64
2018-12-30T01:42:15.047Z,87.64
2018-12-30T01:43:15.037Z,87.54
2018-12-30T01:44:15.028Z,88.26
2018-12-30T01:45:15.015Z,87.54
2018-12-30T01:46:15.006Z,87.43
2018-12-30T01:47:14.991Z,88.47
2018-12-30T01:48:14.986Z,87.34
2018-12-30T01:49:14.972Z,86.61
2018-12-30T01:50:14.962Z,86.26
2018-12-30T01:51:14.950Z,86.68
2018-12-30T01:52:14.938Z,86.57
2018-12-30T01:53:14.929Z,86.68
2018-12-30T01:54:14.913Z,86.26
2018-12-30T01:55:14.904Z,86.88
2018-12-30T01:56:14.892Z,86.68
2018-12-30T01:57:14.882Z,86.05
2018-12-30T01:58:14.873Z,86.47
2018-12-30T01:59:14.861Z,86.88
2018-12-30T02:00:14.849Z,86.68
2018-12-30T02:01:14.839Z,86.98
2018-12-30T02:02:14.828Z,86.05
2018-12-30T02:03:14.816Z,86.57
2018-12-30T02:04:14.805Z,86.16
2018-12-30T02:05:14.794Z,86.37
2018-12-30T02:06:14.784Z,86.37
2018-12-30T02:07:14.774Z,86.37
2018-12-30T02:08:14.764Z,86.37
2018-12-30T02:09:14.757Z,87.29
2018-12-30T02:10:14.740Z,87.60
2018-12-30T02:11:14.730Z,88.01
2018-12-30T02:12:14.718Z,88.47
2018-12-30T02:13:14.711Z,88.57
2018-12-30T02:14:14.696Z,89.08
2018-12-30T02:15:14.682Z,88.98
2018-12-30T02:16:14.674Z,89.08
2018-12-30T02:17:14.663Z,88.88
2018-12-30T02:18:14.651Z,89.08
2018-12-30T02:19:14.640Z,88.57
2018-12-30T02:20:14.628Z,88.88
2018-12-30T02:21:14.619Z,88.98
2018-12-30T02:22:14.607Z,88.98
2018-12-30T02:23:14.598Z,88.57
2018-12-30T02:24:14.587Z,88.47
2018-12-30T02:25:14.576Z,88.67
2018-12-30T02:26:14.564Z,87.34
2018-12-30T02:27:14.552Z,87.54
2018-12-30T02:28:14.543Z,87.23
2018-12-30T02:29:14.532Z,87.13
2018-12-30T02:30:14.522Z,87.34
2018-12-30T02:31:14.521Z,87.64
2018-12-30T02:32:14.500Z,87.43
2018-12-30T02:33:14.487Z,87.54
2018-12-30T02:34:14.478Z,88.47
2018-12-30T02:35:14.467Z,87.75
2018-12-30T02:36:14.456Z,87.95
2018-12-30T02:37:14.448Z,87.85
2018-12-30T02:38:14.433Z,87.85
2018-12-30T02:39:14.421Z,87.95
2018-12-30T02:40:14.413Z,87.95
2018-12-30T02:41:14.399Z,87.13
2018-12-30T02:42:14.389Z,86.71
2018-12-30T02:43:14.380Z,86.71
2018-12-30T02:44:14.368Z,86.82
2018-12-30T02:45:14.359Z,87.43
2018-12-30T02:46:14.345Z,87.50
2018-12-30T02:47:14.335Z,87.75
2018-12-30T02:48:14.327Z,87.95
2018-12-30T02:49:14.313Z,87.95
2018-12-30T02:50:14.301Z,87.85
2018-12-30T02:51:14.297Z,87.34
2018-12-30T02:52:14.281Z,87.34
2018-12-30T02:53:14.270Z,87.13
2018-12-30T02:54:14.257Z,87.23
2018-12-30T02:55:14.255Z,87.43
2018-12-30T02:56:14.239Z,87.13
2018-12-30T02:57:14.224Z,87.03
2018-12-30T02:58:14.214Z,87.03
2018-12-30T02:59:14.204Z,87.13
2018-12-30T03:00:14.192Z,86.51
2018-12-30T03:01:14.181Z,86.51
2018-12-30T03:02:14.173Z,85.99
2018-12-30T03:03:14.160Z,85.54
2018-12-30T03:04:14.151Z,85.54
2018-12-30T03:05:14.138Z,85.24
2018-12-30T03:06:14.127Z,85.65
2018-12-30T03:07:14.117Z,85.54
2018-12-30T03:08:14.114Z,86.05
2018-12-30T03:09:14.092Z,85.85
2018-12-30T03:10:14.082Z,86.16
2018-12-30T03:11:14.072Z,86.41
2018-12-30T03:12:14.061Z,86.51
2018-12-30T03:13:14.050Z,86.41
2018-12-30T03:14:14.040Z,86.30
2018-12-30T03:15:14.030Z,86.30
2018-12-30T03:16:14.016Z,86.51
2018-12-30T03:17:14.004Z,86.41
2018-12-30T03:18:13.994Z,86.30
2018-12-30T03:19:13.989Z,86.10
2018-12-30T03:20:13.972Z,85.99
2018-12-30T03:21:13.963Z,86.16
2018-12-30T03:22:13.951Z,86.26
2018-12-30T03:23:13.941Z,86.16
2018-12-30T03:24:13.929Z,86.57
2018-12-30T03:25:13.917Z,86.47
2018-12-30T03:26:13.910Z,86.68
2018-12-30T03:27:13.896Z,86.16
2018-12-30T03:28:13.885Z,86.51
2018-12-30T03:29:13.874Z,86.71
2018-12-30T03:30:13.866Z,86.51
2018-12-30T03:31:13.857Z,86.82
2018-12-30T03:32:13.842Z,86.82
2018-12-30T03:33:13.840Z,87.03
2018-12-30T03:34:13.820Z,86.92
2018-12-30T03:35:13.808Z,87.23
2018-12-30T03:36:13.799Z,87.13
2018-12-30T03:37:13.789Z,87.13
2018-12-30T03:38:13.776Z,87.34
2018-12-30T03:39:13.767Z,87.54
2018-12-30T03:40:13.755Z,87.54
2018-12-30T03:41:13.744Z,87.43
2018-12-30T03:42:13.731Z,87.75
2018-12-30T03:43:13.721Z,87.64
2018-12-30T03:44:13.711Z,87.85
2018-12-30T03:45:13.702Z,88.36
2018-12-30T03:46:13.688Z,87.95
2018-12-30T03:47:13.677Z,87.64
2018-12-30T03:48:13.666Z,87.54
2018-12-30T03:49:13.655Z,87.43
2018-12-30T03:50:13.644Z,87.43
2018-12-30T03:51:13.635Z,87.40
2018-12-30T03:52:13.623Z,87.34
2018-12-30T03:53:13.613Z,87.13
2018-12-30T03:54:13.598Z,86.82
2018-12-30T03:55:13.591Z,86.71
2018-12-30T03:56:13.578Z,86.82
2018-12-30T03:57:13.568Z,87.34
2018-12-30T03:58:13.560Z,87.85
2018-12-30T03:59:13.547Z,87.54
2018-12-30T04:00:13.538Z,87.34
2018-12-30T04:01:13.525Z,87.13
2018-12-30T04:02:13.515Z,86.92
2018-12-30T04:03:13.503Z,86.92
2018-12-30T04:04:13.494Z,86.82
2018-12-30T04:05:13.480Z,86.92
2018-12-30T04:06:13.468Z,86.61
2018-12-30T04:07:13.458Z,86.51
2018-12-30T04:08:13.446Z,86.71
2018-12-30T04:09:13.443Z,86.51
2018-12-30T04:10:13.425Z,86.71
2018-12-30T04:11:13.416Z,86.71
2018-12-30T04:12:13.403Z,86.51
2018-12-30T04:13:13.395Z,86.51
2018-12-30T04:14:13.383Z,86.51
2018-12-30T04:15:13.372Z,86.82
2018-12-30T04:16:13.358Z,86.20
2018-12-30T04:17:13.349Z,86.30
2018-12-30T04:18:13.338Z,86.30
2018-12-30T04:19:13.329Z,86.51
2018-12-30T04:20:13.315Z,86.92
2018-12-30T04:21:13.308Z,86.20
2018-12-30T04:22:17.053Z,85.89
2018-12-30T04:23:13.285Z,86.30
2018-12-30T04:24:13.274Z,86.30
2018-12-30T04:25:13.261Z,86.41
2018-12-30T04:26:13.262Z,86.51
2018-12-30T04:27:13.240Z,86.82
2018-12-30T04:28:13.227Z,86.92
2018-12-30T04:29:13.219Z,86.76
2018-12-30T04:30:13.209Z,86.71
2018-12-30T04:31:13.204Z,86.61
2018-12-30T04:32:13.188Z,87.03
2018-12-30T04:33:13.185Z,87.03
2018-12-30T04:34:13.167Z,87.13
2018-12-30T04:35:13.151Z,86.82
2018-12-30T04:36:13.142Z,87.03
2018-12-30T04:37:13.134Z,86.71
2018-12-30T04:38:13.118Z,86.61
2018-12-30T04:39:13.113Z,87.03
2018-12-30T04:40:13.097Z,87.13
2018-12-30T04:41:13.086Z,86.51
2018-12-30T04:42:13.075Z,86.20
2018-12-30T04:43:13.066Z,85.99
2018-12-30T04:44:13.056Z,86.20
2018-12-30T04:45:13.045Z,85.89
2018-12-30T04:46:13.033Z,86.20
2018-12-30T04:47:13.024Z,86.61
2018-12-30T04:48:13.010Z,86.10
2018-12-30T04:49:13.002Z,86.41
2018-12-30T04:50:12.993Z,86.51
2018-12-30T04:51:12.981Z,86.10
2018-12-30T04:52:12.965Z,86.30
2018-12-30T04:53:12.956Z,86.10
2018-12-30T04:54:12.945Z,86.30
2018-12-30T04:55:12.933Z,86.20
2018-12-30T04:56:12.921Z,86.10
2018-12-30T04:57:12.911Z,85.99
2018-12-30T04:58:12.902Z,86.61
2018-12-30T04:59:12.889Z,86.20
2018-12-30T05:00:12.883Z,86.30
2018-12-30T05:01:12.865Z,85.99
2018-12-30T05:02:12.856Z,85.99
2018-12-30T05:03:12.847Z,85.69
2018-12-30T05:04:12.838Z,85.79
2018-12-30T05:05:12.824Z,85.69
2018-12-30T05:06:12.813Z,86.30
2018-12-30T05:07:12.802Z,86.05
2018-12-30T05:08:12.789Z,86.05
2018-12-30T05:09:12.781Z,86.26
2018-12-30T05:10:12.770Z,85.44
2018-12-30T05:11:12.757Z,85.85
2018-12-30T05:12:12.745Z,85.85
2018-12-30T05:13:12.735Z,85.44
2018-12-30T05:14:12.725Z,85.33
2018-12-30T05:15:12.719Z,86.68
2018-12-30T05:16:12.707Z,85.99
2018-12-30T05:17:12.690Z,85.58
2018-12-30T05:18:12.685Z,85.58
2018-12-30T05:19:12.671Z,85.38
2018-12-30T05:20:12.659Z,85.48
2018-12-30T05:21:12.649Z,86.16
2018-12-30T05:22:12.636Z,85.48
2018-12-30T05:23:12.628Z,86.30
2018-12-30T05:24:12.620Z,86.30
2018-12-30T05:25:12.604Z,85.69
2018-12-30T05:26:12.595Z,85.38
2018-12-30T05:27:12.583Z,84.76
2018-12-30T05:28:12.571Z,84.93
2018-12-30T05:29:12.560Z,85.33
2018-12-30T05:30:12.548Z,85.17
2018-12-30T05:31:12.538Z,85.85
2018-12-30T05:32:12.526Z,85.79
2018-12-30T05:33:12.515Z,85.48
2018-12-30T05:34:12.506Z,85.17
2018-12-30T05:35:12.492Z,85.79
2018-12-30T05:36:12.485Z,85.17
2018-12-30T05:37:12.476Z,85.65
2018-12-30T05:38:12.463Z,85.13
2018-12-30T05:39:12.449Z,85.48
2018-12-30T05:40:12.446Z,85.99
2018-12-30T05:41:12.431Z,86.41
2018-12-30T05:42:12.420Z,87.23
2018-12-30T05:43:12.406Z,86.30
2018-12-30T05:44:12.396Z,86.10
2018-12-30T05:45:12.386Z,86.41
2018-12-30T05:46:12.375Z,86.41
2018-12-30T05:47:12.365Z,85.99
2018-12-30T05:48:12.351Z,86.41
2018-12-30T05:49:12.341Z,86.30
2018-12-30T05:50:12.331Z,86.20
2018-12-30T05:51:12.322Z,85.89
2018-12-30T05:52:12.310Z,86.71
2018-12-30T05:53:12.296Z,86.71
2018-12-30T05:54:12.285Z,86.20
2018-12-30T05:55:12.275Z,86.71
2018-12-30T05:56:12.267Z,86.61
2018-12-30T05:57:12.252Z,86.61
2018-12-30T05:58:12.244Z,86.30
2018-12-30T05:59:12.232Z,86.10
2018-12-30T06:00:12.221Z,86.20
2018-12-30T06:01:12.214Z,86.82
2018-12-30T06:02:12.200Z,87.64
2018-12-30T06:03:12.189Z,88.16
2018-12-30T06:04:12.182Z,88.26
2018-12-30T06:05:12.168Z,87.43
2018-12-30T06:06:12.153Z,87.54
2018-12-30T06:07:12.144Z,87.43
2018-12-30T06:08:12.134Z,87.13
2018-12-30T06:09:12.123Z,87.03
2018-12-30T06:10:12.114Z,87.64
2018-12-30T06:11:12.105Z,88.06
2018-12-30T06:12:12.093Z,87.54
2018-12-30T06:13:12.078Z,87.23
2018-12-30T06:14:12.068Z,87.43
2018-12-30T06:15:12.057Z,87.75
2018-12-30T06:16:12.046Z,86.92
2018-12-30T06:17:12.035Z,86.92
2018-12-30T06:18:12.028Z,86.71
2018-12-30T06:19:12.013Z,86.41
2018-12-30T06:20:12.006Z,86.71
2018-12-30T06:21:11.997Z,86.82
2018-12-30T06:22:11.980Z,86.57
2018-12-30T06:23:11.971Z,86.92
2018-12-30T06:24:11.959Z,87.23
2018-12-30T06:25:11.956Z,87.23
2018-12-30T06:26:11.937Z,87.43
2018-12-30T06:27:11.927Z,87.03
2018-12-30T06:28:11.917Z,87.13
2018-12-30T06:29:11.905Z,86.61
2018-12-30T06:30:11.894Z,87.03
2018-12-30T06:31:11.882Z,87.43
2018-12-30T06:32:11.873Z,86.92
2018-12-30T06:33:11.861Z,87.34
2018-12-30T06:34:11.851Z,87.54
2018-12-30T06:35:11.839Z,87.34
2018-12-30T06:36:11.833Z,87.95
2018-12-30T06:37:11.816Z,87.85
2018-12-30T06:38:11.806Z,88.06
2018-12-30T06:39:11.794Z,88.36
2018-12-30T06:40:11.784Z,88.26
2018-12-30T06:41:11.774Z,87.43
2018-12-30T06:42:11.763Z,87.75
2018-12-30T06:43:11.753Z,87.43
2018-12-30T06:44:11.741Z,87.43
2018-12-30T06:45:11.728Z,87.95
2018-12-30T06:46:11.719Z,88.36
2018-12-30T06:47:11.780Z,88.36
2018-12-30T06:48:11.695Z,88.36
2018-12-30T06:49:11.687Z,87.43
2018-12-30T06:50:11.676Z,87.34
2018-12-30T06:51:11.663Z,87.03
2018-12-30T06:52:11.651Z,87.19
2018-12-30T06:53:11.642Z,87.09
2018-12-30T06:54:11.638Z,86.68
2018-12-30T06:55:11.618Z,86.78
2018-12-30T06:56:11.610Z,86.68
2018-12-30T06:57:11.597Z,86.37
2018-12-30T06:58:11.588Z,86.37
2018-12-30T06:59:11.581Z,86.57
2018-12-30T07:00:11.570Z,87.19
2018-12-30T07:01:11.556Z,87.40
2018-12-30T07:02:11.544Z,87.09
2018-12-30T07:03:11.533Z,87.09
2018-12-30T07:04:11.520Z,87.29
2018-12-30T07:05:11.511Z,87.50
2018-12-30T07:06:11.500Z,87.85
2018-12-30T07:07:11.489Z,88.47
2018-12-30T07:08:11.477Z,88.57
2018-12-30T07:09:11.469Z,88.67
2018-12-30T07:10:11.454Z,88.88
2018-12-30T07:11:11.444Z,88.47
2018-12-30T07:12:11.436Z,88.47
2018-12-30T07:13:11.423Z,88.57
2018-12-30T07:14:11.411Z,88.47
2018-12-30T07:15:11.402Z,88.47
2018-12-30T07:16:11.389Z,88.88
2018-12-30T07:17:11.381Z,88.98
2018-12-30T07:18:11.368Z,88.16
2018-12-30T07:19:11.356Z,88.67
2018-12-30T07:20:11.347Z,88.88
2018-12-30T07:21:11.336Z,88.57
2018-12-30T07:22:11.324Z,88.57
2018-12-30T07:23:11.315Z,88.57
2018-12-30T07:24:11.301Z,88.67
2018-12-30T07:25:11.296Z,88.98
2018-12-30T07:26:11.280Z,89.08
2018-12-30T07:27:11.269Z,89.29
2018-12-30T07:28:11.258Z,89.19
2018-12-30T07:29:11.247Z,89.19
2018-12-30T07:30:11.237Z,89.08
2018-12-30T07:31:11.226Z,89.29
2018-12-30T07:32:11.215Z,89.19
2018-12-30T07:33:11.204Z,89.39
2018-12-30T07:34:11.192Z,89.29
2018-12-30T07:35:11.183Z,89.08
2018-12-30T07:36:11.171Z,87.64
2018-12-30T07:37:11.162Z,87.54
2018-12-30T07:38:11.149Z,87.95
2018-12-30T07:39:11.136Z,88.06
2018-12-30T07:40:11.128Z,87.85
2018-12-30T07:41:11.116Z,88.16
2018-12-30T07:42:11.106Z,87.95
2018-12-30T07:43:11.096Z,87.85
2018-12-30T07:44:11.730Z,88.36
2018-12-30T07:45:11.072Z,88.57
2018-12-30T07:46:11.060Z,87.75
2018-12-30T07:47:11.052Z,87.95
2018-12-30T07:48:11.038Z,87.43
2018-12-30T07:49:11.027Z,87.95
2018-12-30T07:50:11.018Z,87.95
2018-12-30T07:51:11.009Z,88.06
2018-12-30T07:52:10.997Z,87.54
2018-12-30T07:53:13.901Z,87.64
2018-12-30T07:54:10.977Z,87.64
2018-12-30T07:55:10.965Z,87.64
2018-12-30T07:56:10.951Z,87.95
2018-12-30T07:57:10.941Z,88.36
2018-12-30T07:58:10.932Z,88.67
2018-12-30T07:59:10.918Z,88.57
2018-12-30T08:00:10.911Z,88.47
2018-12-30T08:01:10.898Z,87.95
2018-12-30T08:02:10.888Z,88.26
2018-12-30T08:03:10.878Z,88.36
2018-12-30T08:04:10.866Z,88.16
2018-12-30T08:05:10.854Z,88.26
2018-12-30T08:06:10.844Z,88.57
2018-12-30T08:07:10.836Z,88.57
2018-12-30T08:08:10.824Z,88.67
2018-12-30T08:09:10.811Z,88.78
2018-12-30T08:10:10.801Z,88.78
2018-12-30T08:11:10.788Z,88.67
2018-12-30T08:12:10.778Z,88.98
2018-12-30T08:13:10.770Z,89.29
2018-12-30T08:14:10.763Z,89.19
2018-12-30T08:15:10.751Z,89.29
2018-12-30T08:16:10.737Z,88.47
2018-12-30T08:17:10.727Z,88.36
2018-12-30T08:18:10.717Z,88.47
2018-12-30T08:19:10.703Z,88.26
2018-12-30T08:20:10.694Z,88.57
2018-12-30T08:21:10.681Z,88.88
2018-12-30T08:22:10.671Z,88.57
2018-12-30T08:23:10.659Z,89.19
2018-12-30T08:24:10.651Z,89.19
2018-12-30T08:25:10.639Z,89.50
2018-12-30T08:26:10.627Z,89.70
2018-12-30T08:27:10.616Z,88.98
2018-12-30T08:28:10.605Z,89.29
2018-12-30T08:29:10.595Z,89.54
2018-12-30T08:30:10.584Z,89.95
2018-12-30T08:31:10.576Z,90.05
2018-12-30T08:32:10.565Z,89.95
2018-12-30T08:33:10.552Z,89.60
2018-12-30T08:34:10.546Z,89.19
2018-12-30T08:35:10.534Z,89.39
2018-12-30T08:36:10.527Z,89.60
2018-12-30T08:37:10.512Z,89.39
2018-12-30T08:38:10.499Z,89.29
2018-12-30T08:39:10.487Z,89.60
2018-12-30T08:40:10.476Z,89.50
2018-12-30T08:41:10.468Z,88.88
2018-12-30T08:42:10.455Z,89.50
2018-12-30T08:43:10.442Z,89.70
2018-12-30T08:44:10.433Z,90.01
2018-12-30T08:45:10.430Z,89.39
2018-12-30T08:46:10.414Z,89.91
2018-12-30T08:47:10.399Z,89.70
2018-12-30T08:48:10.389Z,89.54
2018-12-30T08:49:10.380Z,89.81
2018-12-30T08:50:10.371Z,89.81
2018-12-30T08:51:10.412Z,90.32
2018-12-30T08:52:10.348Z,90.63
2018-12-30T08:53:10.343Z,90.63
2018-12-30T08:54:10.327Z,90.32
2018-12-30T08:55:10.312Z,90.53
2018-12-30T08:56:10.302Z,90.42
2018-12-30T08:57:10.293Z,89.50
2018-12-30T08:58:10.282Z,89.39
2018-12-30T08:59:10.269Z,89.60
2018-12-30T09:00:10.259Z,89.91
2018-12-30T09:01:10.251Z,89.39
2018-12-30T09:02:10.236Z,89.70
2018-12-30T09:03:10.227Z,89.77
2018-12-30T09:04:10.216Z,88.84
2018-12-30T09:05:10.205Z,88.94
2018-12-30T09:06:10.195Z,88.73
2018-12-30T09:07:10.187Z,88.84
2018-12-30T09:08:10.235Z,89.25
2018-12-30T09:09:10.162Z,89.25
2018-12-30T09:10:10.151Z,88.22
2018-12-30T09:11:10.178Z,88.42
2018-12-30T09:12:10.130Z,88.73
2018-12-30T09:13:10.121Z,88.84
2018-12-30T09:14:10.108Z,89.14
2018-12-30T09:15:10.096Z,89.60
2018-12-30T09:16:10.084Z,88.88
2018-12-30T09:17:10.075Z,89.50
2018-12-30T09:18:10.064Z,89.77
2018-12-30T09:19:10.056Z,89.66
2018-12-30T09:20:10.043Z,89.97
2018-12-30T09:21:10.030Z,90.11
2018-12-30T09:22:10.020Z,90.53
2018-12-30T09:23:10.007Z,90.69
2018-12-30T09:24:10.006Z,90.38
2018-12-30T09:25:09.989Z,90.11
2018-12-30T09:26:09.977Z,89.19
2018-12-30T09:27:09.966Z,89.70
2018-12-30T09:28:09.957Z,90.01
2018-12-30T09:29:09.952Z,89.97
2018-12-30T09:30:09.936Z,90.01
2018-12-30T09:31:09.924Z,90.42
2018-12-30T09:32:09.912Z,90.11
2018-12-30T09:33:09.901Z,90.63
2018-12-30T09:34:09.890Z,91.04
2018-12-30T09:35:09.880Z,90.11
2018-12-30T09:36:09.867Z,89.81
2018-12-30T09:37:09.858Z,89.70
2018-12-30T09:38:09.845Z,89.87
2018-12-30T09:39:09.834Z,89.56
2018-12-30T09:40:09.824Z,89.56
2018-12-30T09:41:09.813Z,89.45
2018-12-30T09:42:09.801Z,89.35
2018-12-30T09:43:09.795Z,89.45
2018-12-30T09:44:09.780Z,89.45
2018-12-30T09:45:09.771Z,88.84
2018-12-30T09:46:09.759Z,88.94
2018-12-30T09:47:09.747Z,89.14
2018-12-30T09:48:09.740Z,89.00
2018-12-30T09:49:09.727Z,89.00
2018-12-30T09:50:09.724Z,89.52
2018-12-30T09:51:09.704Z,89.93
2018-12-30T09:52:09.695Z,90.13
2018-12-30T09:53:09.684Z,89.11
2018-12-30T09:54:09.671Z,88.90
2018-12-30T09:55:09.662Z,89.31
2018-12-30T09:56:09.651Z,89.45
2018-12-30T09:57:09.639Z,89.41
2018-12-30T09:58:09.633Z,89.35
2018-12-30T09:59:09.618Z,89.66
2018-12-30T10:00:09.608Z,90.07
2018-12-30T10:01:09.598Z,90.53
2018-12-30T10:02:09.587Z,90.73
2018-12-30T10:03:09.577Z,91.10
2018-12-30T10:04:09.668Z,91.31
2018-12-30T10:05:09.558Z,90.79
2018-12-30T10:06:09.545Z,90.07
2018-12-30T10:07:09.535Z,90.17
2018-12-30T10:08:09.521Z,90.28
2018-12-30T10:09:09.512Z,90.28
2018-12-30T10:10:09.501Z,90.49
2018-12-30T10:11:09.491Z,90.69
2018-12-30T10:12:09.479Z,90.59
2018-12-30T10:13:09.468Z,90.28
2018-12-30T10:14:09.458Z,90.49
2018-12-30T10:15:10.225Z,90.17
2018-12-30T10:16:09.441Z,90.13
2018-12-30T10:17:09.425Z,90.75
2018-12-30T10:18:09.414Z,89.62
2018-12-30T10:19:09.405Z,87.93
2018-12-30T10:20:09.395Z,87.93
2018-12-30T10:21:09.382Z,87.73
2018-12-30T10:22:09.371Z,87.52
2018-12-30T10:23:09.363Z,87.52
2018-12-30T10:24:09.352Z,88.45
2018-12-30T10:25:09.337Z,88.55
2018-12-30T10:26:09.329Z,88.14
2018-12-30T10:27:09.315Z,88.34
2018-12-30T10:28:09.305Z,87.83
2018-12-30T10:29:09.295Z,88.24
2018-12-30T10:30:09.283Z,88.03
2018-12-30T10:31:09.274Z,87.48
2018-12-30T10:32:09.266Z,86.24
2018-12-30T10:33:09.253Z,86.04
2018-12-30T10:34:09.243Z,86.24
2018-12-30T10:35:09.229Z,85.94
2018-12-30T10:36:09.222Z,87.28
2018-12-30T10:37:09.207Z,86.56
2018-12-30T10:38:09.204Z,86.96
2018-12-30T10:39:09.189Z,86.45
2018-12-30T10:40:09.178Z,85.73
2018-12-30T10:41:09.167Z,85.83
2018-12-30T10:42:09.161Z,85.32
2018-12-30T10:43:09.145Z,85.53
2018-12-30T10:44:09.135Z,85.38
2018-12-30T10:45:09.121Z,86.31
2018-12-30T10:46:09.111Z,85.18
2018-12-30T10:47:09.099Z,84.25
2018-12-30T10:48:09.088Z,84.46
2018-12-30T10:49:09.077Z,84.05
2018-12-30T10:50:09.067Z,84.87
2018-12-30T10:51:09.058Z,85.59
2018-12-30T10:52:09.052Z,85.45
2018-12-30T10:53:09.035Z,85.04
2018-12-30T10:54:09.025Z,83.19
2018-12-30T10:55:09.019Z,84.42
2018-12-30T10:56:09.002Z,84.52
2018-12-30T10:57:08.991Z,83.39
2018-12-30T10:58:08.984Z,83.08
2018-12-30T10:59:08.970Z,83.60
2018-12-30T11:00:08.958Z,84.11
2018-12-30T11:01:08.947Z,83.80
2018-12-30T11:02:08.937Z,84.32
2018-12-30T11:03:08.925Z,84.36
2018-12-30T11:04:08.917Z,84.77
2018-12-30T11:05:08.904Z,83.85
2018-12-30T11:06:08.894Z,85.18
2018-12-30T11:07:08.883Z,84.25
2018-12-30T11:08:08.874Z,85.28
2018-12-30T11:09:08.863Z,85.28
2018-12-30T11:10:08.852Z,84.77
2018-12-30T11:11:08.839Z,83.53
2018-12-30T11:12:08.828Z,84.05
2018-12-30T11:13:08.817Z,84.97
2018-12-30T11:14:08.806Z,84.15
2018-12-30T11:15:08.795Z,84.25
2018-12-30T11:16:08.787Z,84.97
2018-12-30T11:17:08.775Z,84.36
2018-12-30T11:18:08.762Z,84.97
2018-12-30T11:19:08.754Z,85.69
2018-12-30T11:20:08.744Z,84.97
2018-12-30T11:21:08.729Z,83.33
2018-12-30T11:22:08.732Z,83.33
2018-12-30T11:23:08.709Z,83.94
2018-12-30T11:24:09.019Z,84.60
2018-12-30T11:25:08.689Z,85.01
2018-12-30T11:26:08.674Z,84.71
2018-12-30T11:27:08.664Z,84.91
2018-12-30T11:28:08.652Z,85.32
2018-12-30T11:29:08.647Z,84.71
2018-12-30T11:30:08.633Z,84.60
2018-12-30T11:31:08.621Z,85.28
2018-12-30T11:32:08.618Z,83.64
2018-12-30T11:33:08.601Z,83.94
2018-12-30T11:34:08.587Z,83.85
2018-12-30T11:35:08.586Z,83.78
2018-12-30T11:36:08.569Z,85.32
2018-12-30T11:37:08.558Z,85.28
2018-12-30T11:38:08.545Z,84.25
2018-12-30T11:39:08.533Z,83.74
2018-12-30T11:40:08.523Z,84.05
2018-12-30T11:41:08.512Z,83.60
2018-12-30T11:42:08.510Z,82.78
2018-12-30T11:43:08.488Z,82.78
2018-12-30T11:44:08.480Z,82.47
2018-12-30T11:45:08.469Z,82.67
2018-12-30T11:46:08.456Z,83.66
2018-12-30T11:47:08.451Z,83.56
2018-12-30T11:48:08.436Z,83.77
2018-12-30T11:49:08.428Z,83.15
2018-12-30T11:50:08.412Z,82.74
2018-12-30T11:51:08.402Z,82.84
2018-12-30T11:52:08.391Z,83.19
2018-12-30T11:53:08.381Z,83.97
2018-12-30T11:54:16.245Z,83.25
2018-12-30T11:55:09.373Z,82.64
2018-12-30T11:56:08.346Z,82.98
2018-12-30T11:57:08.341Z,82.98
2018-12-30T11:58:08.331Z,82.78
2018-12-30T11:59:09.091Z,83.60
2018-12-30T12:00:08.303Z,83.80
2018-12-30T12:01:08.294Z,83.39
2018-12-30T12:02:08.284Z,84.01
2018-12-30T12:03:08.269Z,83.29
2018-12-30T12:04:08.258Z,84.11
2018-12-30T12:05:08.249Z,83.70
2018-12-30T12:06:08.239Z,83.80
2018-12-30T12:07:08.233Z,83.39
2018-12-30T12:08:08.216Z,83.29
2018-12-30T12:09:08.204Z,83.12
2018-12-30T12:10:08.194Z,83.64
2018-12-30T12:11:08.182Z,83.02
2018-12-30T12:12:08.175Z,83.33
2018-12-30T12:13:08.162Z,83.74
2018-12-30T12:14:08.151Z,83.85
2018-12-30T12:15:08.140Z,83.33
2018-12-30T12:16:08.128Z,83.53
2018-12-30T12:17:08.120Z,83.12
2018-12-30T12:18:08.107Z,83.43
2018-12-30T12:19:08.099Z,83.64
2018-12-30T12:20:08.084Z,83.85
2018-12-30T12:21:08.074Z,83.99
2018-12-30T12:22:08.065Z,84.39
2018-12-30T12:23:08.057Z,83.88
2018-12-30T12:24:08.044Z,84.71
2018-12-30T12:25:08.031Z,85.22
2018-12-30T12:26:08.022Z,85.63
2018-12-30T12:27:08.011Z,85.11
2018-12-30T12:28:08.001Z,86.29
2018-12-30T12:29:07.988Z,85.57
2018-12-30T12:30:07.981Z,86.29
2018-12-30T12:31:07.971Z,86.08
2018-12-30T12:32:07.955Z,86.18
2018-12-30T12:33:07.944Z,86.08
2018-12-30T12:34:07.935Z,85.88
2018-12-30T12:35:07.928Z,86.08
2018-12-30T12:36:07.914Z,85.88
2018-12-30T12:37:07.901Z,86.18
2018-12-30T12:38:07.892Z,86.39
2018-12-30T12:39:07.880Z,87.11
2018-12-30T12:40:07.871Z,87.01
2018-12-30T12:41:07.860Z,87.07
2018-12-30T12:42:07.847Z,86.66
2018-12-30T12:43:07.836Z,85.94
2018-12-30T12:44:07.826Z,85.22
2018-12-30T12:45:07.813Z,85.22
2018-12-30T12:46:07.804Z,85.01
2018-12-30T12:47:07.791Z,85.83
2018-12-30T12:48:07.781Z,85.43
2018-12-30T12:49:07.770Z,85.11
2018-12-30T12:50:07.758Z,85.11
2018-12-30T12:51:07.752Z,85.63
2018-12-30T12:52:07.737Z,85.32